createdAt,value
2019-04-23T00:00:17.099Z,5.30
2019-04-23T00:05:41.812Z,7.17
2019-04-23T00:08:11.433Z,5.90
2019-04-23T00:10:42.478Z,8.27
2019-04-23T00:13:14.457Z,5.47
2019-04-23T00:16:14.035Z,8.30
2019-04-23T00:21:42.510Z,6.27
2019-04-23T00:24:46.579Z,5.63
2019-04-23T00:27:19.176Z,10.80
2019-04-23T00:29:44.447Z,4.13
2019-04-23T00:32:10.359Z,4.53
2019-04-23T00:34:44.561Z,8.27
2019-04-23T00:37:18.630Z,3.93
2019-04-23T00:39:51.457Z,5.67
2019-04-23T00:42:27.731Z,6.33
2019-04-23T00:44:54.386Z,7.80
2019-04-23T00:47:26.755Z,4.57
2019-04-23T00:50:00.010Z,4.07
2019-04-23T00:52:30.512Z,5.60
2019-04-23T00:55:04.386Z,5.17
2019-04-23T01:00:13.993Z,7.93
2019-04-23T01:02:36.994Z,8.93
2019-04-23T01:05:11.752Z,4.23
2019-04-23T01:07:41.600Z,6.20
2019-04-23T01:10:25.553Z,7.90
2019-04-23T01:12:51.268Z,5.27
2019-04-23T01:15:28.828Z,4.53
2019-04-23T01:18:02.238Z,7.20
2019-04-23T01:22:59.059Z,10.20
2019-04-23T01:25:51.583Z,5.23
2019-04-23T01:28:35.663Z,6.73
2019-04-23T01:31:08.903Z,6.67
2019-04-23T01:38:45.633Z,6.00
2019-04-23T01:41:21.663Z,5.10
2019-04-23T01:43:46.089Z,6.20
2019-04-23T01:46:21.415Z,4.07
2019-04-23T01:49:00.202Z,7.57
2019-04-23T01:51:33.931Z,8.27
2019-04-23T01:53:57.364Z,11.03
2019-04-23T01:56:28.710Z,5.63
2019-04-23T01:59:05.122Z,6.60
2019-04-23T02:01:43.242Z,6.57
2019-04-23T02:06:42.115Z,4.90
2019-04-23T02:09:13.866Z,5.30
2019-04-23T02:14:20.825Z,6.70
2019-04-23T02:16:49.990Z,5.47
2019-04-23T02:19:25.444Z,5.27
2019-04-23T02:22:05.022Z,8.73
2019-04-23T02:24:41.266Z,6.83
2019-04-23T02:27:16.977Z,9.87
2019-04-23T02:29:59.191Z,7.83
2019-04-23T02:32:19.680Z,4.17
2019-04-23T02:37:36.323Z,5.67
2019-04-23T02:40:04.092Z,7.37
2019-04-23T02:45:02.720Z,5.87
2019-04-23T02:55:17.251Z,5.43
2019-04-23T02:57:54.081Z,5.63
2019-04-23T03:00:27.773Z,7.20
2019-04-23T03:03:01.807Z,9.70
2019-04-23T03:05:24.915Z,6.20
2019-04-23T03:07:59.804Z,5.37
2019-04-23T03:10:30.781Z,4.83
2019-04-23T03:13:09.208Z,7.23
2019-04-23T03:21:26.183Z,5.03
2019-04-23T03:24:04.471Z,6.40
2019-04-23T03:26:55.628Z,5.37
2019-04-23T03:35:10.594Z,5.10
2019-04-23T03:37:09.283Z,6.73
2019-04-23T03:39:05.751Z,5.37
2019-04-23T03:41:50.457Z,5.83
2019-04-23T03:44:24.493Z,10.90
2019-04-23T03:49:15.334Z,5.20
2019-04-23T03:52:03.221Z,8.03
2019-04-23T04:02:20.792Z,5.43
2019-04-23T04:04:32.974Z,7.60
2019-04-23T04:12:25.042Z,23.27
2019-04-23T04:14:57.358Z,17.07
2019-04-23T04:17:19.622Z,12.23
2019-04-23T04:19:56.917Z,24.90
2019-04-23T04:25:00.155Z,31.47
2019-04-23T04:27:47.984Z,13.87
2019-04-23T04:30:12.393Z,11.27
2019-04-23T04:32:38.329Z,13.20
2019-04-23T04:35:20.984Z,13.93
2019-04-23T04:37:51.355Z,11.07
2019-04-23T04:47:49.361Z,16.70
2019-04-23T04:50:24.264Z,35.60
2019-04-23T04:53:23.189Z,29.47
2019-04-23T05:01:23.080Z,8.13
2019-04-23T05:03:54.711Z,7.77
2019-04-23T05:06:37.986Z,8.83
2019-04-23T05:11:47.127Z,7.43
2019-04-23T05:14:08.206Z,6.47
2019-04-23T05:16:46.022Z,8.07
2019-04-23T05:19:28.771Z,6.60
2019-04-23T05:21:54.574Z,11.30
2019-04-23T05:24:21.719Z,9.63
2019-04-23T05:26:49.639Z,6.90
2019-04-23T05:29:30.249Z,6.93
2019-04-23T05:31:58.234Z,5.70
2019-04-23T05:34:38.224Z,9.57
2019-04-23T05:37:04.980Z,7.03
2019-04-23T05:42:17.615Z,6.73
2019-04-23T05:47:24.993Z,5.63
2019-04-23T05:49:57.010Z,5.83
2019-04-23T05:52:24.098Z,8.17
2019-04-23T05:54:58.882Z,7.07
2019-04-23T05:57:19.803Z,5.73
2019-04-23T05:59:59.062Z,9.10
2019-04-23T06:02:35.899Z,14.13
2019-04-23T06:05:03.820Z,5.00
2019-04-23T06:07:54.617Z,6.17
2019-04-23T06:10:13.373Z,6.73
2019-04-23T06:12:45.302Z,6.43
2019-04-23T06:15:24.154Z,5.83
2019-04-23T06:17:57.703Z,4.20
2019-04-23T06:20:28.823Z,6.63
2019-04-23T06:23:01.976Z,4.97
2019-04-23T06:28:11.199Z,5.37
2019-04-23T06:33:14.465Z,5.57
2019-04-23T06:35:45.127Z,5.80
2019-04-23T06:40:50.304Z,6.07
2019-04-23T06:46:03.652Z,4.10
2019-04-23T06:53:40.304Z,6.90
2019-04-23T06:56:14.319Z,3.63
2019-04-23T06:58:42.928Z,3.53
2019-04-23T07:01:09.686Z,8.97
2019-04-23T07:06:22.297Z,7.87
2019-04-23T07:11:29.074Z,7.67
2019-04-23T07:13:55.694Z,7.07
2019-04-23T07:16:28.067Z,7.27
2019-04-23T07:19:04.904Z,5.03
2019-04-23T07:21:50.833Z,7.13
2019-04-23T07:29:20.332Z,6.13
2019-04-23T07:31:53.905Z,6.53
2019-04-23T07:34:43.047Z,9.13
2019-04-23T07:36:55.373Z,6.73
2019-04-23T07:40:07.587Z,5.30
2019-04-23T07:45:34.978Z,7.07
2019-04-23T07:48:13.358Z,6.90
2019-04-23T07:50:43.401Z,5.10
2019-04-23T08:00:48.942Z,6.97
2019-04-23T08:05:55.545Z,5.67
2019-04-23T08:08:30.403Z,5.97
2019-04-23T08:16:32.496Z,5.03
2019-04-23T08:21:27.700Z,8.20
2019-04-23T08:24:11.974Z,5.53
2019-04-23T08:26:59.167Z,4.77
2019-04-23T08:29:30.417Z,5.37
2019-04-23T08:39:46.848Z,8.37
2019-04-23T08:45:20.273Z,3.53
2019-04-23T08:48:21.521Z,6.77
2019-04-23T08:51:10.760Z,5.03
2019-04-23T08:53:47.990Z,4.07
2019-04-23T08:56:18.439Z,13.33
2019-04-23T08:58:48.986Z,7.00
2019-04-23T09:01:27.805Z,5.73
2019-04-23T09:03:54.357Z,5.77
2019-04-23T09:06:27.683Z,4.80
2019-04-23T09:08:56.809Z,12.53
2019-04-23T09:13:59.653Z,9.03
2019-04-23T09:16:48.805Z,5.07
2019-04-23T09:19:16.579Z,5.77
2019-04-23T09:21:45.906Z,6.63
2019-04-23T09:24:17.572Z,6.70
2019-04-23T09:26:53.611Z,6.10
2019-04-23T09:29:30.534Z,9.07
2019-04-23T09:32:36.957Z,5.80
2019-04-23T09:43:53.620Z,3.17
2019-04-23T09:46:36.133Z,6.60
2019-04-23T09:49:19.052Z,3.33
2019-04-23T09:51:49.221Z,5.33
2019-04-23T09:54:18.069Z,4.10
2019-04-23T09:56:50.856Z,3.83
2019-04-23T09:59:34.181Z,3.77
2019-04-23T10:01:44.952Z,5.87
2019-04-23T10:04:13.291Z,6.40
2019-04-23T10:06:36.459Z,3.13
2019-04-23T10:09:09.942Z,2.43
2019-04-23T10:11:38.327Z,3.07
2019-04-23T10:14:12.431Z,9.80
2019-04-23T10:16:43.432Z,7.13
2019-04-23T10:19:15.114Z,4.40
2019-04-23T10:21:47.040Z,3.83
2019-04-23T10:24:19.136Z,6.17
2019-04-23T10:26:50.362Z,4.53
2019-04-23T10:29:25.775Z,3.87
2019-04-23T10:31:57.770Z,6.37
2019-04-23T10:34:30.466Z,3.57
2019-04-23T10:37:01.952Z,2.57
2019-04-23T10:39:37.839Z,2.90
2019-04-23T10:42:07.936Z,4.27
2019-04-23T10:44:50.387Z,7.73
2019-04-23T10:48:11.639Z,4.73
2019-04-23T10:50:51.251Z,2.23
2019-04-23T10:55:56.251Z,7.00
2019-04-23T11:00:59.763Z,4.20
2019-04-23T11:08:38.341Z,3.63
2019-04-23T11:11:14.582Z,3.23
2019-04-23T11:13:53.119Z,2.97
2019-04-23T11:19:15.721Z,1.63
2019-04-23T11:21:35.606Z,2.10
2019-04-23T11:24:10.952Z,1.70
2019-04-23T11:26:44.352Z,1.50
2019-04-23T11:29:12.897Z,2.83
2019-04-23T11:31:41.566Z,2.80
2019-04-23T11:34:34.177Z,3.60
2019-04-23T11:38:17.111Z,1.57
2019-04-23T11:39:23.533Z,2.23
2019-04-23T11:44:34.307Z,2.83
2019-04-23T11:47:06.293Z,5.70
2019-04-23T11:52:07.919Z,2.40
2019-04-23T12:05:41.447Z,4.43
2019-04-23T12:08:33.529Z,1.93
2019-04-23T12:11:24.158Z,4.07
2019-04-23T12:13:37.892Z,0.60
2019-04-23T12:16:12.557Z,1.30
2019-04-23T12:18:43.200Z,3.60
2019-04-23T12:21:22.608Z,1.80
2019-04-23T12:24:00.852Z,2.70
2019-04-23T12:28:57.139Z,2.07
2019-04-23T12:31:36.488Z,7.20
2019-04-23T12:34:09.705Z,1.70
2019-04-23T12:36:45.651Z,0.70
2019-04-23T12:39:32.912Z,1.87
2019-04-23T12:41:51.180Z,1.50
2019-04-23T12:44:22.459Z,2.17
2019-04-23T12:47:07.026Z,3.17
2019-04-23T12:49:53.388Z,1.43
2019-04-23T12:52:14.391Z,3.07
2019-04-23T12:54:51.587Z,2.57
2019-04-23T12:57:32.685Z,1.80
2019-04-23T13:02:29.117Z,1.17
2019-04-23T13:04:57.386Z,2.00
2019-04-23T13:07:33.507Z,1.90
2019-04-23T13:10:15.577Z,3.13
2019-04-23T13:12:48.014Z,1.10
2019-04-23T13:15:22.722Z,2.13
2019-04-23T13:20:28.092Z,0.93
2019-04-23T13:23:18.275Z,2.23
2019-04-23T13:25:54.210Z,1.17
2019-04-23T13:31:00.668Z,1.23
2019-04-23T13:38:41.738Z,2.07
2019-04-23T13:41:17.269Z,0.73
2019-04-23T13:43:47.927Z,2.50
2019-04-23T13:46:13.839Z,1.47
2019-04-23T13:48:42.161Z,3.27
2019-04-23T13:51:22.726Z,0.67
2019-04-23T13:56:39.300Z,0.87
2019-04-23T13:59:16.683Z,1.40
2019-04-23T14:01:39.966Z,1.00
2019-04-23T14:04:11.975Z,0.50
2019-04-23T14:06:46.509Z,1.83
2019-04-23T14:09:24.160Z,1.33
2019-04-23T14:11:46.713Z,1.43
2019-04-23T14:14:34.546Z,1.77
2019-04-23T14:17:02.275Z,1.07
2019-04-23T14:19:26.436Z,0.47
2019-04-23T14:22:07.083Z,3.30
2019-04-23T14:24:41.803Z,1.17
2019-04-23T14:27:08.839Z,0.83
2019-04-23T14:29:48.114Z,3.83
2019-04-23T14:32:15.721Z,2.90
2019-04-23T14:34:54.339Z,0.70
2019-04-23T14:37:17.587Z,0.70
2019-04-23T14:39:47.617Z,0.73
2019-04-23T14:42:30.400Z,2.10
2019-04-23T14:45:08.083Z,0.70
2019-04-23T14:47:28.184Z,1.43
2019-04-23T14:50:24.337Z,1.00
2019-04-23T14:52:44.522Z,1.23
2019-04-23T15:00:23.426Z,3.60
2019-04-23T15:02:51.870Z,2.27
2019-04-23T15:07:52.089Z,2.93
2019-04-23T15:10:27.313Z,0.57
2019-04-23T15:12:59.701Z,2.10
2019-04-23T15:15:23.967Z,1.27
2019-04-23T15:18:09.546Z,2.20
2019-04-23T15:20:39.495Z,1.57
2019-04-23T15:26:57.177Z,4.03
2019-04-23T15:28:12.145Z,2.43
2019-04-23T15:30:59.139Z,1.10
2019-04-23T15:36:22.715Z,5.23
2019-04-23T15:38:53.447Z,4.27
2019-04-23T15:41:10.271Z,5.17
2019-04-23T15:43:38.545Z,1.70
2019-04-23T15:46:21.886Z,1.20
2019-04-23T15:48:54.284Z,1.73
2019-04-23T15:53:54.614Z,5.73
2019-04-23T15:56:35.625Z,1.13
2019-04-23T15:59:14.317Z,1.70
2019-04-23T16:01:29.352Z,2.07
2019-04-23T16:03:33.896Z,1.50
2019-04-23T16:06:05.580Z,0.67
2019-04-23T16:09:09.592Z,0.67
2019-04-23T16:16:45.368Z,0.73
2019-04-23T16:19:38.702Z,2.10
2019-04-23T16:22:03.716Z,1.83
2019-04-23T16:24:24.889Z,0.93
2019-04-23T16:27:46.916Z,2.27
2019-04-23T16:35:28.346Z,7.80
2019-04-23T16:38:04.205Z,2.33
2019-04-23T16:40:31.289Z,3.37
2019-04-23T16:43:05.475Z,2.07
2019-04-23T16:45:45.857Z,3.93
2019-04-23T16:48:18.056Z,4.60
2019-04-23T16:50:57.464Z,3.50
2019-04-23T16:53:15.761Z,1.60
2019-04-23T16:55:47.466Z,9.27
2019-04-23T16:58:33.722Z,2.67
2019-04-23T17:03:26.500Z,5.73
2019-04-23T17:06:03.985Z,3.60
2019-04-23T17:08:42.423Z,4.27
2019-04-23T17:11:09.709Z,2.30
2019-04-23T17:21:10.213Z,5.03
2019-04-23T17:23:50.318Z,4.30
2019-04-23T17:28:44.927Z,1.67
2019-04-23T17:31:32.355Z,3.37
2019-04-23T17:33:59.109Z,2.60
2019-04-23T17:36:52.181Z,2.93
2019-04-23T17:39:31.279Z,3.13
2019-04-23T17:42:43.924Z,0.87
2019-04-23T17:48:16.088Z,3.63
2019-04-23T17:51:02.431Z,1.30
2019-04-23T17:58:34.393Z,2.60
2019-04-23T18:09:05.957Z,1.80
2019-04-23T18:14:02.307Z,3.53
2019-04-23T18:16:40.893Z,7.70
2019-04-23T18:21:50.632Z,6.07
2019-04-23T18:24:50.215Z,4.40
2019-04-23T18:41:19.283Z,3.07
2019-04-23T18:43:50.971Z,1.83
2019-04-23T18:46:35.197Z,3.00
2019-04-23T18:48:53.293Z,2.80
2019-04-23T18:51:33.667Z,2.53
2019-04-23T18:54:15.503Z,3.67
2019-04-23T18:56:48.573Z,2.67
2019-04-23T18:59:29.483Z,5.17
2019-04-23T19:02:19.407Z,2.90
2019-04-23T19:07:51.513Z,2.47
2019-04-23T19:10:48.799Z,2.10
2019-04-23T19:13:23.341Z,2.93
2019-04-23T19:15:59.809Z,3.80
2019-04-23T19:18:27.086Z,4.07
2019-04-23T19:23:39.498Z,5.43
2019-04-23T19:26:41.577Z,2.77
2019-04-23T19:31:25.370Z,4.90
2019-04-23T19:39:46.429Z,7.53
2019-04-23T19:42:03.648Z,5.87
2019-04-23T19:44:43.414Z,6.20
2019-04-23T19:49:50.880Z,2.80
2019-04-23T19:52:52.141Z,4.37
2019-04-23T19:55:11.428Z,4.23
2019-04-23T20:00:44.427Z,3.10
2019-04-23T20:05:41.438Z,3.53
2019-04-23T20:08:24.725Z,3.40
2019-04-23T20:10:55.954Z,6.13
2019-04-23T20:13:37.848Z,6.13
2019-04-23T20:16:12.249Z,5.73
2019-04-23T20:18:46.011Z,3.07
2019-04-23T20:21:38.939Z,3.87
2019-04-23T20:27:02.774Z,6.53
2019-04-23T20:33:37.690Z,3.97
2019-04-23T20:35:15.594Z,4.57
2019-04-23T20:40:40.239Z,4.60
2019-04-23T20:43:32.055Z,11.03
2019-04-23T20:46:17.221Z,5.40
2019-04-23T20:48:53.010Z,7.70
2019-04-23T20:51:33.794Z,5.97
2019-04-23T20:54:35.671Z,8.60
2019-04-23T20:57:43.539Z,3.30
2019-04-23T21:03:52.007Z,3.10
2019-04-23T21:06:44.217Z,2.90
2019-04-23T21:09:28.255Z,2.93
2019-04-23T21:12:16.327Z,3.57
2019-04-23T21:15:03.201Z,3.30
2019-04-23T21:17:14.633Z,3.50
2019-04-23T21:25:30.203Z,2.60
2019-04-23T21:33:59.629Z,2.53
2019-04-23T21:36:58.383Z,2.63
2019-04-23T21:40:19.483Z,2.03
2019-04-23T21:42:41.083Z,2.27
2019-04-23T21:45:06.349Z,0.80
2019-04-23T21:47:58.886Z,1.97
2019-04-23T21:52:54.165Z,0.80
2019-04-23T21:55:36.717Z,0.73
2019-04-23T21:58:10.516Z,1.57
2019-04-23T22:04:17.343Z,1.17
2019-04-23T22:06:52.797Z,1.60
2019-04-23T22:09:26.979Z,1.80
2019-04-23T22:12:03.475Z,1.97
2019-04-23T22:14:40.013Z,1.23
2019-04-23T22:17:33.242Z,0.93
2019-04-23T22:20:17.690Z,0.67
2019-04-23T22:23:12.895Z,3.17
2019-04-23T22:26:07.338Z,0.63
2019-04-23T22:28:29.891Z,1.40
2019-04-23T22:31:04.040Z,0.60
2019-04-23T22:33:44.027Z,0.50
2019-04-23T22:36:18.189Z,2.47
2019-04-23T22:38:51.232Z,0.70
2019-04-23T22:42:08.752Z,0.50
2019-04-23T22:47:15.554Z,0.53
2019-04-23T22:50:06.123Z,1.80
2019-04-23T22:52:33.733Z,1.57
2019-04-23T22:55:09.305Z,1.67
2019-04-23T22:57:56.723Z,0.40
2019-04-23T23:00:14.663Z,2.10
2019-04-23T23:05:56.202Z,1.10
2019-04-23T23:08:37.879Z,0.50
2019-04-23T23:10:50.805Z,0.37
2019-04-23T23:13:20.701Z,1.27
2019-04-23T23:15:53.355Z,0.50
2019-04-23T23:20:59.667Z,0.63
2019-04-23T23:23:34.424Z,1.13
2019-04-23T23:26:15.999Z,0.50
2019-04-23T23:28:37.118Z,2.80
2019-04-23T23:31:06.507Z,1.97
2019-04-23T23:36:14.131Z,1.27
2019-04-23T23:39:02.833Z,0.50
2019-04-23T23:41:26.397Z,0.83
2019-04-23T23:44:08.141Z,0.80
2019-04-23T23:46:31.427Z,1.47
2019-04-23T23:48:57.022Z,2.53
2019-04-23T23:51:29.066Z,0.63
2019-04-23T23:56:34.388Z,1.30
